Terminal Aerodrome Forecast
Issued by NWS

Current Version | Previous Version | Text Only | Print | Product List | Glossary Off
Versions: 1 2 3 4 5 6 7 8 9 10 11 12 13 14 15 16 17 18 19 20 21 22 23 24 25 26 27 28 29

000
FTUS41 KRLX 220100 AAA
TAFCKB
TAF AMD
KCKB 220106Z 2201/2224 00000KT 6SM BR BKN025
     FM221400 00000KT 4SM BR BKN015
     FM221600 VRB03KT 5SM SHRA BR VCTS BKN015CB
     FM222000 26004KT 5SM SHRA BR VCTS BKN025CB
     FM222300 00000KT 5SM SHRA BR VCTS BKN025CB=

USA.gov is the U.S. government's official web portal to all federal, state and local government web resources and services.